Time;durP1;ratioP1;P1;durP2;ratioP2;P2;SDS_P1;SDS_P2;PMS_P1;PMS_P2;Temp;Humidity;BMP_temperature;BMP_pressure;BME280_temperature;BME280_humidity;BME280_pressure;Samples;Min_cycle;Max_cycle;Signal;HPM_P1;HPM_P2
2023/01/31 00:00:06;;;;;;;18.88;4.50;;;;;;;;;;519991;28;1455;-67
2023/01/31 00:00:22;;;;;;;17.67;4.43;;;;;;;;;;519296;28;1377;-67
2023/01/31 00:00:38;;;;;;;17.60;4.38;;;;;;;;;;518223;28;1242;-67
2023/01/31 00:00:54;;;;;;;15.82;4.10;;;;;;;;;;517692;28;1278;-67
2023/01/31 00:01:14;;;;;;;16.10;4.03;;;;;;;;;;519440;28;1362;-67
2023/01/31 00:01:32;;;;;;;17.48;4.22;;;;;;;;;;521450;28;1722;-66
2023/01/31 00:01:48;;;;;;;17.08;4.18;;;;;;;;;;520289;28;1475;-66
2023/01/31 00:02:03;;;;;;;18.17;4.25;;;;;;;;;;519379;28;1372;-67
2023/01/31 00:02:18;;;;;;;19.93;4.40;;;;;;;;;;522459;28;1379;-67
2023/01/31 00:02:34;;;;;;;18.42;4.28;;;;;;;;;;520144;28;1205;-67
2023/01/31 00:02:49;;;;;;;16.90;4.10;;;;;;;;;;520792;28;1284;-67
2023/01/31 00:03:05;;;;;;;16.52;4.25;;;;;;;;;;521117;28;1710;-67
2023/01/31 00:03:20;;;;;;;17.50;4.40;;;;;;;;;;522143;28;1224;-67
2023/01/31 00:03:37;;;;;;;17.83;4.23;;;;;;;;;;521351;28;1345;-66
2023/01/31 00:03:54;;;;;;;18.13;4.28;;;;;;;;;;519568;28;1424;-67
2023/01/31 00:04:11;;;;;;;19.13;4.30;;;;;;;;;;518644;28;1670;-66
2023/01/31 00:04:26;;;;;;;17.75;4.00;;;;;;;;;;517143;28;1369;-67
2023/01/31 00:04:41;;;;;;;17.83;4.07;;;;;;;;;;519900;28;1687;-67
2023/01/31 00:04:57;;;;;;;19.00;4.35;;;;;;;;;;521060;28;1363;-67
2023/01/31 00:05:12;;;;;;;18.57;4.30;;;;;;;;;;519145;28;1379;-67
2023/01/31 00:05:27;;;;;;;16.07;4.00;;;;;;;;;;517090;28;1422;-68
2023/01/31 00:05:43;;;;;;;16.92;4.22;;;;;;;;;;520800;28;1356;-67
2023/01/31 00:06:18;;;;;;;19.60;4.60;;;;;;;;;;519022;28;1381;-67
2023/01/31 00:06:37;;;;;;;17.88;4.28;;;;;;;;;;519884;28;1358;-67
2023/01/31 00:06:52;;;;;;;18.80;4.15;;;;;;;;;;518280;28;1485;-67
2023/01/31 00:07:08;;;;;;;15.93;4.18;;;;;;;;;;519427;28;1382;-67
2023/01/31 00:07:23;;;;;;;15.50;4.00;;;;;;;;;;519854;28;1294;-67
2023/01/31 00:07:38;;;;;;;17.55;4.00;;;;;;;;;;520223;28;1597;-67
2023/01/31 00:07:54;;;;;;;17.63;4.00;;;;;;;;;;522274;28;1621;-67
2023/01/31 00:08:11;;;;;;;19.55;4.63;;;;;;;;;;521098;28;1505;-67
2023/01/31 00:08:26;;;;;;;19.73;4.78;;;;;;;;;;522338;28;1275;-68
2023/01/31 00:08:43;;;;;;;17.95;4.60;;;;;;;;;;520749;28;1325;-67
2023/01/31 00:09:00;;;;;;;18.38;4.72;;;;;;;;;;519994;28;1447;-67
2023/01/31 00:09:15;;;;;;;18.17;4.38;;;;;;;;;;522143;28;1463;-67
2023/01/31 00:09:31;;;;;;;19.90;4.13;;;;;;;;;;521523;28;1745;-68
2023/01/31 00:09:46;;;;;;;19.30;4.20;;;;;;;;;;521603;28;1483;-68
2023/01/31 00:10:01;;;;;;;17.63;4.40;;;;;;;;;;521500;28;1375;-66
2023/01/31 00:10:17;;;;;;;18.97;4.40;;;;;;;;;;521559;28;1392;-67
2023/01/31 00:10:32;;;;;;;19.93;4.33;;;;;;;;;;523554;28;1391;-66
2023/01/31 00:10:47;;;;;;;19.15;4.32;;;;;;;;;;518903;28;1416;-67
2023/01/31 00:11:02;;;;;;;18.37;4.20;;;;;;;;;;521115;28;1852;-67
2023/01/31 00:11:20;;;;;;;16.60;4.30;;;;;;;;;;521300;28;1499;-67
2023/01/31 00:11:35;;;;;;;16.85;4.35;;;;;;;;;;519213;28;1338;-67
2023/01/31 00:11:52;;;;;;;18.97;4.67;;;;;;;;;;518492;28;1981;-66
2023/01/31 00:12:07;;;;;;;17.35;4.60;;;;;;;;;;519373;28;1614;-67
2023/01/31 00:12:22;;;;;;;16.00;4.50;;;;;;;;;;518778;28;1300;-67
2023/01/31 00:12:38;;;;;;;18.83;4.60;;;;;;;;;;518612;28;1373;-67
2023/01/31 00:12:53;;;;;;;19.58;4.28;;;;;;;;;;519108;28;1525;-67
2023/01/31 00:13:08;;;;;;;17.50;4.00;;;;;;;;;;516176;28;1519;-66
2023/01/31 00:13:24;;;;;;;15.87;4.00;;;;;;;;;;520333;28;1352;-67
2023/01/31 00:13:39;;;;;;;16.88;4.13;;;;;;;;;;520141;28;1419;-67
2023/01/31 00:13:57;;;;;;;18.77;4.20;;;;;;;;;;519026;28;1355;-67
2023/01/31 00:14:17;;;;;;;17.48;4.22;;;;;;;;;;519197;28;1284;-66
2023/01/31 00:14:32;;;;;;;16.95;4.10;;;;;;;;;;520711;28;1392;-67
2023/01/31 00:14:48;;;;;;;18.97;4.27;;;;;;;;;;520177;28;1423;-68
2023/01/31 00:15:04;;;;;;;19.70;4.07;;;;;;;;;;520078;28;1213;-67
2023/01/31 00:15:19;;;;;;;17.85;4.03;;;;;;;;;;521097;28;1493;-67
2023/01/31 00:15:34;;;;;;;16.67;4.20;;;;;;;;;;521280;28;1188;-67
2023/01/31 00:15:50;;;;;;;16.13;4.05;;;;;;;;;;522989;28;1677;-67
2023/01/31 00:16:06;;;;;;;15.43;3.77;;;;;;;;;;522825;28;1339;-67
2023/01/31 00:16:22;;;;;;;14.93;3.95;;;;;;;;;;520357;28;1426;-67
2023/01/31 00:16:37;;;;;;;19.60;4.30;;;;;;;;;;520384;28;1164;-66
2023/01/31 00:16:53;;;;;;;19.33;4.28;;;;;;;;;;521578;28;1390;-66
2023/01/31 00:17:08;;;;;;;17.03;4.37;;;;;;;;;;520578;28;1300;-67
2023/01/31 00:17:23;;;;;;;17.60;4.50;;;;;;;;;;520846;28;1571;-67
2023/01/31 00:17:39;;;;;;;16.37;4.13;;;;;;;;;;522071;28;1724;-67
2023/01/31 00:17:54;;;;;;;15.53;4.07;;;;;;;;;;523000;28;1438;-67
2023/01/31 00:18:10;;;;;;;17.88;4.20;;;;;;;;;;523453;28;1462;-67
2023/01/31 00:18:25;;;;;;;20.47;4.30;;;;;;;;;;522577;28;1371;-68
2023/01/31 00:18:41;;;;;;;20.05;4.40;;;;;;;;;;525161;28;1562;-66
2023/01/31 00:18:57;;;;;;;18.95;4.45;;;;;;;;;;525145;28;1491;-67
2023/01/31 00:19:12;;;;;;;18.80;4.53;;;;;;;;;;525057;28;1703;-66
2023/01/31 00:19:27;;;;;;;19.77;4.60;;;;;;;;;;523518;28;1418;-67
2023/01/31 00:19:43;;;;;;;17.83;4.33;;;;;;;;;;523363;28;1596;-66
2023/01/31 00:19:58;;;;;;;17.30;4.20;;;;;;;;;;522376;28;1361;-67
2023/01/31 00:20:13;;;;;;;17.03;3.83;;;;;;;;;;524074;28;1411;-67
2023/01/31 00:20:28;;;;;;;17.13;4.03;;;;;;;;;;523472;28;1457;-67
2023/01/31 00:20:44;;;;;;;18.37;4.50;;;;;;;;;;523153;28;1641;-66
2023/01/31 00:21:14;;;;;;;17.90;4.30;;;;;;;;;;523158;28;1292;-66
2023/01/31 00:21:31;;;;;;;20.83;4.97;;;;;;;;;;523087;28;1382;-66
2023/01/31 00:21:46;;;;;;;16.65;4.25;;;;;;;;;;523511;28;1538;-66
2023/01/31 00:22:02;;;;;;;16.90;4.13;;;;;;;;;;522689;28;1304;-66
2023/01/31 00:22:17;;;;;;;18.33;4.43;;;;;;;;;;521905;28;1498;-66
2023/01/31 00:22:32;;;;;;;15.85;4.20;;;;;;;;;;520700;28;1852;-67
2023/01/31 00:22:48;;;;;;;16.47;4.40;;;;;;;;;;522634;28;1546;-66
2023/01/31 00:23:03;;;;;;;18.83;4.63;;;;;;;;;;520803;28;1453;-66
2023/01/31 00:23:18;;;;;;;18.25;4.57;;;;;;;;;;523231;28;1305;-67
2023/01/31 00:23:34;;;;;;;18.30;4.60;;;;;;;;;;522700;28;1385;-67
2023/01/31 00:23:51;;;;;;;18.10;4.50;;;;;;;;;;522752;28;1323;-66
2023/01/31 00:24:06;;;;;;;18.30;4.57;;;;;;;;;;520763;28;1588;-67
2023/01/31 00:24:22;;;;;;;19.30;4.73;;;;;;;;;;522897;28;1365;-67
2023/01/31 00:24:37;;;;;;;17.50;4.60;;;;;;;;;;521301;28;1455;-66
2023/01/31 00:24:52;;;;;;;16.93;4.40;;;;;;;;;;520392;28;1110;-66
2023/01/31 00:25:08;;;;;;;17.63;4.40;;;;;;;;;;521068;28;1529;-67
2023/01/31 00:25:23;;;;;;;19.27;4.60;;;;;;;;;;523514;28;1360;-66
2023/01/31 00:25:38;;;;;;;19.20;4.60;;;;;;;;;;522248;28;1826;-66
2023/01/31 00:25:54;;;;;;;17.83;4.47;;;;;;;;;;522914;28;1352;-67
2023/01/31 00:26:12;;;;;;;17.17;4.33;;;;;;;;;;520249;28;1506;-67
2023/01/31 00:26:30;;;;;;;17.23;3.95;;;;;;;;;;522529;28;1251;-66
2023/01/31 00:26:47;;;;;;;20.25;4.20;;;;;;;;;;523507;28;1153;-66
2023/01/31 00:27:02;;;;;;;18.77;4.40;;;;;;;;;;525089;28;1473;-66
2023/01/31 00:27:18;;;;;;;16.33;4.27;;;;;;;;;;523178;28;1891;-66
2023/01/31 00:27:33;;;;;;;16.83;4.30;;;;;;;;;;523473;28;1435;-66
2023/01/31 00:27:49;;;;;;;16.35;4.03;;;;;;;;;;520969;28;1460;-66
2023/01/31 00:28:04;;;;;;;18.00;3.90;;;;;;;;;;519919;28;1424;-66
2023/01/31 00:28:19;;;;;;;19.57;4.20;;;;;;;;;;522236;28;1375;-66
2023/01/31 00:28:34;;;;;;;19.33;4.57;;;;;;;;;;519377;28;1391;-66
2023/01/31 00:28:52;;;;;;;17.38;4.57;;;;;;;;;;519512;28;1686;-66
2023/01/31 00:29:08;;;;;;;16.65;4.20;;;;;;;;;;518861;28;1464;-66
2023/01/31 00:29:23;;;;;;;18.63;4.07;;;;;;;;;;517415;28;1307;-65
2023/01/31 00:29:38;;;;;;;17.93;4.10;;;;;;;;;;516655;28;1384;-65
2023/01/31 00:29:54;;;;;;;17.88;4.30;;;;;;;;;;519794;28;1360;-66
2023/01/31 00:30:10;;;;;;;16.37;4.17;;;;;;;;;;519328;28;1529;-65
2023/01/31 00:30:25;;;;;;;15.32;3.88;;;;;;;;;;517738;28;1643;-65
2023/01/31 00:30:40;;;;;;;15.03;3.60;;;;;;;;;;518006;28;1436;-66
2023/01/31 00:30:57;;;;;;;15.98;3.65;;;;;;;;;;516271;28;1707;-65
2023/01/31 00:31:14;;;;;;;17.05;4.00;;;;;;;;;;517721;28;1378;-65
2023/01/31 00:31:31;;;;;;;16.70;4.10;;;;;;;;;;518833;28;1504;-66
2023/01/31 00:31:46;;;;;;;17.27;4.15;;;;;;;;;;518699;28;1304;-65
2023/01/31 00:32:02;;;;;;;18.47;4.03;;;;;;;;;;520945;28;1921;-65
2023/01/31 00:32:18;;;;;;;17.92;3.92;;;;;;;;;;522342;28;1303;-65
2023/01/31 00:32:33;;;;;;;17.37;4.23;;;;;;;;;;522495;28;1312;-65
2023/01/31 00:32:48;;;;;;;16.85;4.20;;;;;;;;;;519830;28;1473;-65
2023/01/31 00:33:04;;;;;;;18.03;4.00;;;;;;;;;;518704;28;1431;-65
2023/01/31 00:33:19;;;;;;;18.73;4.23;;;;;;;;;;520528;28;1384;-66
2023/01/31 00:33:35;;;;;;;17.80;4.20;;;;;;;;;;520410;28;1537;-65
2023/01/31 00:33:52;;;;;;;16.48;3.90;;;;;;;;;;521361;28;1327;-65
2023/01/31 00:34:09;;;;;;;17.50;4.20;;;;;;;;;;519598;28;1389;-65
2023/01/31 00:34:24;;;;;;;18.38;4.50;;;;;;;;;;520364;28;1685;-65
2023/01/31 00:34:39;;;;;;;17.75;4.07;;;;;;;;;;521991;28;1247;-65
2023/01/31 00:34:55;;;;;;;17.10;3.77;;;;;;;;;;521729;28;1436;-66
2023/01/31 00:35:10;;;;;;;16.20;3.60;;;;;;;;;;522803;28;2457;-65
2023/01/31 00:35:26;;;;;;;15.80;3.72;;;;;;;;;;518940;28;1389;-65
2023/01/31 00:35:41;;;;;;;15.23;3.78;;;;;;;;;;521132;28;1459;-65
2023/01/31 00:35:56;;;;;;;15.27;3.70;;;;;;;;;;521681;28;1511;-65
2023/01/31 00:36:14;;;;;;;16.13;3.80;;;;;;;;;;523348;28;1431;-65
2023/01/31 00:36:32;;;;;;;15.18;3.50;;;;;;;;;;526236;28;1413;-65
2023/01/31 00:36:47;;;;;;;15.27;3.63;;;;;;;;;;522882;28;1827;-65
2023/01/31 00:37:03;;;;;;;15.20;3.67;;;;;;;;;;520679;28;1284;-66
2023/01/31 00:37:18;;;;;;;16.42;3.88;;;;;;;;;;520443;28;1456;-65
2023/01/31 00:37:34;;;;;;;15.30;3.70;;;;;;;;;;521455;28;1224;-65
2023/01/31 00:37:49;;;;;;;12.65;3.42;;;;;;;;;;518774;28;1299;-66
2023/01/31 00:38:04;;;;;;;13.30;3.50;;;;;;;;;;519489;28;1427;-65
2023/01/31 00:38:19;;;;;;;15.23;3.47;;;;;;;;;;519238;28;1686;-65
2023/01/31 00:38:35;;;;;;;14.50;3.20;;;;;;;;;;517782;28;1137;-66
2023/01/31 00:38:53;;;;;;;14.40;3.00;;;;;;;;;;519438;28;1388;-65
2023/01/31 00:39:09;;;;;;;14.07;3.00;;;;;;;;;;520304;28;1626;-66
2023/01/31 00:39:25;;;;;;;13.05;3.10;;;;;;;;;;520173;28;1291;-65
2023/01/31 00:39:40;;;;;;;13.73;3.08;;;;;;;;;;519752;28;1336;-65
2023/01/31 00:39:55;;;;;;;13.77;3.23;;;;;;;;;;522600;28;1417;-64
2023/01/31 00:40:11;;;;;;;13.70;3.47;;;;;;;;;;520653;28;1188;-65
2023/01/31 00:40:26;;;;;;;14.15;3.35;;;;;;;;;;521979;28;1234;-64
2023/01/31 00:40:41;;;;;;;14.63;3.27;;;;;;;;;;521878;28;1255;-66
2023/01/31 00:40:57;;;;;;;14.57;3.38;;;;;;;;;;522898;28;1258;-65
2023/01/31 00:41:12;;;;;;;14.60;3.40;;;;;;;;;;524033;28;1216;-66
2023/01/31 00:41:29;;;;;;;13.40;3.22;;;;;;;;;;524208;28;1101;-65
2023/01/31 00:41:44;;;;;;;13.93;3.28;;;;;;;;;;521254;28;1259;-66
2023/01/31 00:41:59;;;;;;;14.15;3.38;;;;;;;;;;521676;28;1282;-65
2023/01/31 00:42:15;;;;;;;12.17;3.10;;;;;;;;;;520550;28;1314;-65
2023/01/31 00:42:30;;;;;;;14.83;3.30;;;;;;;;;;520697;28;1198;-65
2023/01/31 00:42:45;;;;;;;17.17;3.80;;;;;;;;;;521083;28;1176;-66
2023/01/31 00:43:01;;;;;;;15.05;3.60;;;;;;;;;;521610;28;1227;-65
2023/01/31 00:43:16;;;;;;;15.07;3.50;;;;;;;;;;519504;28;1296;-66
2023/01/31 00:43:31;;;;;;;15.43;3.72;;;;;;;;;;520787;28;1404;-66
2023/01/31 00:43:47;;;;;;;13.57;3.37;;;;;;;;;;522266;28;1366;-66
2023/01/31 00:44:03;;;;;;;13.13;3.30;;;;;;;;;;522049;28;1461;-66
2023/01/31 00:44:19;;;;;;;14.57;3.53;;;;;;;;;;526024;28;1495;-66
2023/01/31 00:44:34;;;;;;;14.87;3.40;;;;;;;;;;520277;28;1276;-66
2023/01/31 00:44:49;;;;;;;16.55;3.58;;;;;;;;;;519892;28;1332;-65
2023/01/31 00:45:05;;;;;;;19.60;3.77;;;;;;;;;;521985;28;1382;-66
2023/01/31 00:45:20;;;;;;;19.85;3.88;;;;;;;;;;521849;28;1255;-66
2023/01/31 00:45:36;;;;;;;19.27;4.00;;;;;;;;;;519313;28;1282;-65
2023/01/31 00:45:51;;;;;;;18.50;3.93;;;;;;;;;;519260;28;1134;-66
2023/01/31 00:46:07;;;;;;;18.30;3.83;;;;;;;;;;521418;28;1210;-66
2023/01/31 00:46:25;;;;;;;17.37;3.80;;;;;;;;;;521809;28;1280;-66
2023/01/31 00:46:40;;;;;;;14.73;3.72;;;;;;;;;;523583;28;1755;-66
2023/01/31 00:46:55;;;;;;;16.90;3.83;;;;;;;;;;524386;28;1408;-66
2023/01/31 00:47:11;;;;;;;19.97;3.90;;;;;;;;;;521696;28;1179;-66
2023/01/31 00:47:26;;;;;;;21.98;4.45;;;;;;;;;;521733;28;1230;-66
2023/01/31 00:47:41;;;;;;;20.00;4.20;;;;;;;;;;518936;28;1284;-66
2023/01/31 00:47:57;;;;;;;18.47;4.00;;;;;;;;;;517543;28;1194;-66
2023/01/31 00:48:12;;;;;;;17.65;4.05;;;;;;;;;;517249;28;1211;-66
2023/01/31 00:48:28;;;;;;;15.90;3.73;;;;;;;;;;518679;28;1359;-66
2023/01/31 00:48:43;;;;;;;15.40;3.70;;;;;;;;;;519966;28;1418;-66
2023/01/31 00:49:00;;;;;;;17.23;3.93;;;;;;;;;;519819;28;1197;-66
2023/01/31 00:49:15;;;;;;;16.88;3.97;;;;;;;;;;516608;28;1281;-66
2023/01/31 00:49:30;;;;;;;15.97;3.90;;;;;;;;;;521351;28;1183;-66
2023/01/31 00:49:46;;;;;;;16.63;4.13;;;;;;;;;;520801;28;1368;-66
2023/01/31 00:50:02;;;;;;;17.33;4.10;;;;;;;;;;522355;28;1353;-66
2023/01/31 00:50:18;;;;;;;16.05;3.72;;;;;;;;;;522259;28;1317;-66
2023/01/31 00:50:33;;;;;;;15.63;3.72;;;;;;;;;;521840;28;1165;-66
2023/01/31 00:50:49;;;;;;;17.63;3.90;;;;;;;;;;520413;28;1267;-66
2023/01/31 00:51:04;;;;;;;18.42;4.00;;;;;;;;;;522141;28;1110;-66
2023/01/31 00:51:20;;;;;;;17.80;4.23;;;;;;;;;;522039;28;1255;-66
2023/01/31 00:51:35;;;;;;;18.25;4.45;;;;;;;;;;519652;28;1493;-66
2023/01/31 00:51:50;;;;;;;20.53;4.70;;;;;;;;;;517639;28;1981;-67
2023/01/31 00:52:06;;;;;;;22.45;4.97;;;;;;;;;;517525;28;1173;-66
2023/01/31 00:52:21;;;;;;;21.47;4.93;;;;;;;;;;520153;28;1453;-67
2023/01/31 00:52:36;;;;;;;19.47;4.67;;;;;;;;;;521016;28;1193;-66
2023/01/31 00:52:51;;;;;;;19.48;4.60;;;;;;;;;;523826;28;1251;-66
2023/01/31 00:53:07;;;;;;;19.97;4.97;;;;;;;;;;521573;28;1301;-66
2023/01/31 00:53:24;;;;;;;19.50;4.90;;;;;;;;;;524743;28;1203;-66
2023/01/31 00:53:39;;;;;;;19.27;4.75;;;;;;;;;;523083;28;1506;-66
2023/01/31 00:53:55;;;;;;;20.37;4.63;;;;;;;;;;523401;28;1191;-66
2023/01/31 00:54:10;;;;;;;18.87;4.33;;;;;;;;;;520294;28;1207;-66
2023/01/31 00:54:25;;;;;;;16.63;4.20;;;;;;;;;;522248;28;1109;-66
2023/01/31 00:54:41;;;;;;;18.77;4.50;;;;;;;;;;522057;28;1194;-66
2023/01/31 00:54:57;;;;;;;18.42;4.50;;;;;;;;;;519666;28;1342;-66
2023/01/31 00:55:12;;;;;;;17.63;4.27;;;;;;;;;;520432;28;1205;-66
2023/01/31 00:55:27;;;;;;;17.85;4.35;;;;;;;;;;521138;28;1260;-66
2023/01/31 00:55:43;;;;;;;18.10;4.40;;;;;;;;;;519880;28;1261;-66
2023/01/31 00:56:06;;;;;;;18.90;4.63;;;;;;;;;;519051;28;1314;-66
2023/01/31 00:56:23;;;;;;;19.45;4.82;;;;;;;;;;519964;28;1528;-66
2023/01/31 00:56:38;;;;;;;20.15;4.90;;;;;;;;;;519266;28;1264;-66
2023/01/31 00:56:53;;;;;;;19.33;4.55;;;;;;;;;;521838;28;1432;-66
2023/01/31 00:57:09;;;;;;;19.90;4.40;;;;;;;;;;521804;28;1262;-66
2023/01/31 00:57:24;;;;;;;19.63;4.65;;;;;;;;;;523006;28;1136;-66
2023/01/31 00:57:39;;;;;;;17.83;4.50;;;;;;;;;;518740;28;1219;-66
2023/01/31 00:57:55;;;;;;;17.60;4.53;;;;;;;;;;519792;28;1255;-66
2023/01/31 00:58:10;;;;;;;17.33;4.60;;;;;;;;;;519425;28;1004;-66
2023/01/31 00:58:25;;;;;;;17.88;4.53;;;;;;;;;;521423;28;1199;-66
2023/01/31 00:58:41;;;;;;;19.97;4.77;;;;;;;;;;519078;28;1470;-66
2023/01/31 00:58:56;;;;;;;20.25;4.70;;;;;;;;;;522304;28;1305;-66
2023/01/31 00:59:12;;;;;;;20.53;4.57;;;;;;;;;;521079;28;1421;-66
2023/01/31 00:59:27;;;;;;;21.23;4.68;;;;;;;;;;518731;28;1280;-66
2023/01/31 00:59:42;;;;;;;20.23;4.63;;;;;;;;;;521706;28;1164;-66
2023/01/31 00:59:58;;;;;;;18.97;4.43;;;;;;;;;;519823;28;1308;-66
2023/01/31 01:00:13;;;;;;;18.80;4.30;;;;;;;;;;520098;28;1193;-66
2023/01/31 01:00:29;;;;;;;19.88;4.57;;;;;;;;;;519169;28;1836;-66
2023/01/31 01:00:45;;;;;;;18.80;4.70;;;;;;;;;;518304;28;1418;-66
2023/01/31 01:01:09;;;;;;;18.75;4.47;;;;;;;;;;520789;28;1207;-65
2023/01/31 01:01:27;;;;;;;20.00;4.43;;;;;;;;;;521344;28;1219;-66
2023/01/31 01:01:43;;;;;;;19.75;4.45;;;;;;;;;;517196;28;1512;-65
2023/01/31 01:01:58;;;;;;;19.67;4.57;;;;;;;;;;519229;28;1403;-66
2023/01/31 01:02:13;;;;;;;19.43;4.60;;;;;;;;;;519215;28;1313;-66
2023/01/31 01:02:29;;;;;;;18.58;4.45;;;;;;;;;;521417;28;1231;-66
2023/01/31 01:02:44;;;;;;;19.37;4.37;;;;;;;;;;518867;28;1181;-66
2023/01/31 01:02:59;;;;;;;21.77;4.50;;;;;;;;;;519733;28;1398;-66
2023/01/31 01:03:14;;;;;;;20.98;4.57;;;;;;;;;;521242;28;1243;-66
2023/01/31 01:03:30;;;;;;;19.23;4.20;;;;;;;;;;519066;28;1160;-66
2023/01/31 01:03:45;;;;;;;18.87;4.23;;;;;;;;;;519790;28;1170;-66
2023/01/31 01:04:01;;;;;;;17.88;4.30;;;;;;;;;;521418;28;1260;-65
2023/01/31 01:04:16;;;;;;;16.37;4.20;;;;;;;;;;519180;28;1237;-66
2023/01/31 01:04:31;;;;;;;16.70;4.50;;;;;;;;;;520784;28;1259;-66
2023/01/31 01:04:46;;;;;;;18.40;4.47;;;;;;;;;;522184;28;1120;-66
2023/01/31 01:05:02;;;;;;;20.13;4.63;;;;;;;;;;522355;28;1369;-66
2023/01/31 01:05:17;;;;;;;19.60;4.60;;;;;;;;;;520611;28;1392;-66
2023/01/31 01:05:32;;;;;;;17.95;4.28;;;;;;;;;;519512;28;1242;-66
2023/01/31 01:05:48;;;;;;;21.73;4.30;;;;;;;;;;518973;28;1186;-66
2023/01/31 01:06:04;;;;;;;22.70;4.47;;;;;;;;;;519469;28;1251;-66
2023/01/31 01:06:20;;;;;;;20.25;4.60;;;;;;;;;;521562;28;1238;-66
2023/01/31 01:06:39;;;;;;;18.50;4.35;;;;;;;;;;520201;28;1319;-66
2023/01/31 01:06:54;;;;;;;16.88;4.20;;;;;;;;;;520814;28;1454;-66
2023/01/31 01:07:09;;;;;;;17.58;4.28;;;;;;;;;;521492;28;1143;-66
2023/01/31 01:07:25;;;;;;;17.40;4.13;;;;;;;;;;521162;28;1225;-66
2023/01/31 01:07:41;;;;;;;15.70;3.90;;;;;;;;;;521027;28;1328;-65
2023/01/31 01:07:56;;;;;;;18.23;4.20;;;;;;;;;;522262;28;1148;-66
2023/01/31 01:08:11;;;;;;;19.27;4.45;;;;;;;;;;519569;28;1539;-66
2023/01/31 01:08:28;;;;;;;17.73;4.20;;;;;;;;;;519971;28;1214;-66
2023/01/31 01:08:44;;;;;;;18.98;4.32;;;;;;;;;;518663;28;1580;-66
2023/01/31 01:09:00;;;;;;;19.98;4.30;;;;;;;;;;518103;28;1397;-66
2023/01/31 01:09:16;;;;;;;15.87;4.00;;;;;;;;;;517702;28;1266;-66
2023/01/31 01:09:31;;;;;;;16.13;4.15;;;;;;;;;;520008;28;1278;-66
2023/01/31 01:09:47;;;;;;;20.87;4.60;;;;;;;;;;521456;28;1239;-66
2023/01/31 01:10:04;;;;;;;20.50;4.60;;;;;;;;;;521437;28;1269;-66
2023/01/31 01:10:19;;;;;;;18.45;4.55;;;;;;;;;;521314;28;1057;-66
2023/01/31 01:10:35;;;;;;;17.40;4.43;;;;;;;;;;523148;28;1521;-66
2023/01/31 01:10:50;;;;;;;19.58;4.40;;;;;;;;;;523555;28;1390;-66
2023/01/31 01:11:16;;;;;;;20.97;4.47;;;;;;;;;;521990;28;1182;-66
2023/01/31 01:11:32;;;;;;;19.48;4.25;;;;;;;;;;522161;28;1227;-66
2023/01/31 01:11:48;;;;;;;17.80;4.40;;;;;;;;;;522114;28;1281;-66
2023/01/31 01:12:04;;;;;;;18.77;4.32;;;;;;;;;;522097;28;1986;-66
2023/01/31 01:12:19;;;;;;;19.15;4.18;;;;;;;;;;519439;28;1401;-67
2023/01/31 01:12:34;;;;;;;17.30;4.30;;;;;;;;;;518636;28;1273;-66
2023/01/31 01:12:50;;;;;;;18.13;4.50;;;;;;;;;;518796;28;1422;-66
2023/01/31 01:13:05;;;;;;;18.33;4.32;;;;;;;;;;516786;28;1209;-66
2023/01/31 01:13:20;;;;;;;17.73;4.40;;;;;;;;;;517463;28;1460;-66
2023/01/31 01:13:36;;;;;;;17.70;4.38;;;;;;;;;;518309;28;1366;-66
2023/01/31 01:13:52;;;;;;;17.70;4.43;;;;;;;;;;518814;28;1236;-65
2023/01/31 01:14:07;;;;;;;18.95;4.70;;;;;;;;;;521844;28;1263;-67
2023/01/31 01:14:23;;;;;;;18.98;4.68;;;;;;;;;;522158;28;1585;-66
2023/01/31 01:14:38;;;;;;;19.83;4.80;;;;;;;;;;522205;28;1210;-66
2023/01/31 01:14:53;;;;;;;19.87;4.50;;;;;;;;;;523355;28;1223;-66
2023/01/31 01:15:09;;;;;;;19.42;4.45;;;;;;;;;;523570;28;1293;-66
2023/01/31 01:15:24;;;;;;;19.27;4.50;;;;;;;;;;523988;28;1185;-66
2023/01/31 01:15:39;;;;;;;19.93;4.43;;;;;;;;;;523611;28;1195;-66
2023/01/31 01:15:55;;;;;;;19.13;4.25;;;;;;;;;;521769;28;1187;-66
2023/01/31 01:16:16;;;;;;;17.27;4.07;;;;;;;;;;519274;28;1395;-66
2023/01/31 01:16:38;;;;;;;17.13;3.95;;;;;;;;;;520090;28;1270;-66
2023/01/31 01:16:57;;;;;;;16.05;4.43;;;;;;;;;;521592;28;1426;-66
2023/01/31 01:17:12;;;;;;;15.82;4.13;;;;;;;;;;521001;28;1398;-66
2023/01/31 01:17:28;;;;;;;16.10;3.93;;;;;;;;;;520727;28;1429;-66
2023/01/31 01:17:43;;;;;;;15.57;3.90;;;;;;;;;;516965;28;1278;-65
2023/01/31 01:17:59;;;;;;;14.93;3.92;;;;;;;;;;518262;28;1351;-65
2023/01/31 01:18:14;;;;;;;17.07;4.30;;;;;;;;;;519748;28;1192;-66
2023/01/31 01:18:30;;;;;;;16.05;3.95;;;;;;;;;;520082;28;1193;-66
2023/01/31 01:18:48;;;;;;;17.70;4.00;;;;;;;;;;521891;28;1235;-66
2023/01/31 01:19:10;;;;;;;20.15;4.40;;;;;;;;;;521009;28;1606;-66
2023/01/31 01:19:26;;;;;;;16.48;3.80;;;;;;;;;;520500;28;1373;-66
2023/01/31 01:19:41;;;;;;;20.70;4.22;;;;;;;;;;519591;28;1424;-67
2023/01/31 01:19:56;;;;;;;21.93;4.30;;;;;;;;;;520622;28;1110;-66
2023/01/31 01:20:12;;;;;;;18.53;4.10;;;;;;;;;;518931;28;1207;-66
2023/01/31 01:20:27;;;;;;;19.63;4.43;;;;;;;;;;520013;28;1011;-66
2023/01/31 01:20:42;;;;;;;19.53;4.37;;;;;;;;;;520573;28;1363;-66
2023/01/31 01:21:15;;;;;;;17.37;4.17;;;;;;;;;;519661;28;1103;-66
2023/01/31 01:21:36;;;;;;;18.98;4.40;;;;;;;;;;519863;28;1334;-66
2023/01/31 01:21:54;;;;;;;19.92;4.53;;;;;;;;;;520523;28;1412;-66
2023/01/31 01:22:14;;;;;;;19.15;4.53;;;;;;;;;;520905;28;1211;-66
2023/01/31 01:22:30;;;;;;;19.83;4.70;;;;;;;;;;520030;28;1342;-66
2023/01/31 01:22:46;;;;;;;18.92;4.43;;;;;;;;;;521834;28;1538;-66
2023/01/31 01:23:01;;;;;;;18.30;4.30;;;;;;;;;;521986;28;1289;-66
2023/01/31 01:23:17;;;;;;;17.63;4.37;;;;;;;;;;521234;28;1213;-66
2023/01/31 01:23:32;;;;;;;18.17;4.40;;;;;;;;;;519127;28;1252;-66
2023/01/31 01:23:48;;;;;;;17.60;4.43;;;;;;;;;;519098;28;1285;-66
2023/01/31 01:24:05;;;;;;;16.73;4.60;;;;;;;;;;521747;28;1367;-67
2023/01/31 01:24:20;;;;;;;19.90;4.60;;;;;;;;;;521619;28;1007;-67
2023/01/31 01:24:35;;;;;;;19.00;4.43;;;;;;;;;;520344;28;1161;-66
2023/01/31 01:24:51;;;;;;;16.55;4.30;;;;;;;;;;521418;28;1335;-66
2023/01/31 01:25:07;;;;;;;18.10;4.13;;;;;;;;;;521632;28;1301;-66
2023/01/31 01:25:22;;;;;;;20.90;4.47;;;;;;;;;;522936;28;1438;-66
2023/01/31 01:25:44;;;;;;;20.67;4.68;;;;;;;;;;520785;28;1413;-66
2023/01/31 01:25:59;;;;;;;19.08;4.18;;;;;;;;;;521221;28;1297;-63
2023/01/31 01:26:20;;;;;;;17.00;4.10;;;;;;;;;;521205;28;1029;-64
2023/01/31 01:26:35;;;;;;;20.80;4.57;;;;;;;;;;522921;28;1165;-65
2023/01/31 01:26:51;;;;;;;19.80;4.68;;;;;;;;;;523306;28;1267;-65
2023/01/31 01:27:06;;;;;;;17.53;4.53;;;;;;;;;;523691;28;1251;-64
2023/01/31 01:27:21;;;;;;;19.37;4.43;;;;;;;;;;521088;28;1290;-66
2023/01/31 01:27:37;;;;;;;21.65;4.70;;;;;;;;;;523179;28;1202;-65
2023/01/31 01:27:52;;;;;;;21.37;4.70;;;;;;;;;;520321;28;1243;-66
2023/01/31 01:28:07;;;;;;;17.10;4.20;;;;;;;;;;521254;28;1251;-66
2023/01/31 01:28:23;;;;;;;18.13;4.40;;;;;;;;;;519663;28;1281;-65
2023/01/31 01:28:38;;;;;;;19.80;4.40;;;;;;;;;;518429;28;1400;-65
2023/01/31 01:28:55;;;;;;;19.03;4.40;;;;;;;;;;520837;28;1173;-65
2023/01/31 01:29:11;;;;;;;19.70;4.53;;;;;;;;;;523052;28;1375;-65
2023/01/31 01:29:26;;;;;;;18.90;4.55;;;;;;;;;;521714;28;1311;-66
2023/01/31 01:29:42;;;;;;;18.77;4.30;;;;;;;;;;519070;28;1338;-66
2023/01/31 01:29:57;;;;;;;19.43;4.37;;;;;;;;;;519223;28;1323;-65
2023/01/31 01:30:13;;;;;;;19.20;4.60;;;;;;;;;;521830;28;1555;-66
2023/01/31 01:30:28;;;;;;;18.83;4.40;;;;;;;;;;521601;28;1254;-65
2023/01/31 01:30:43;;;;;;;17.70;4.00;;;;;;;;;;521851;28;1192;-65
2023/01/31 01:31:03;;;;;;;18.63;4.07;;;;;;;;;;520418;28;1125;-66
2023/01/31 01:31:19;;;;;;;19.52;4.25;;;;;;;;;;522001;28;1383;-65
2023/01/31 01:31:37;;;;;;;17.27;3.78;;;;;;;;;;523496;28;1413;-66
2023/01/31 01:31:52;;;;;;;17.88;3.92;;;;;;;;;;520160;28;1911;-66
2023/01/31 01:32:07;;;;;;;17.58;4.10;;;;;;;;;;524742;28;1254;-65
2023/01/31 01:32:22;;;;;;;16.43;3.90;;;;;;;;;;521435;28;1226;-65
2023/01/31 01:32:38;;;;;;;18.00;3.87;;;;;;;;;;521454;28;1191;-66
2023/01/31 01:32:55;;;;;;;18.73;4.20;;;;;;;;;;518688;28;1240;-66
2023/01/31 01:33:10;;;;;;;17.02;4.18;;;;;;;;;;520141;28;1501;-65
2023/01/31 01:33:25;;;;;;;16.40;4.07;;;;;;;;;;516939;28;1449;-65
2023/01/31 01:33:41;;;;;;;16.70;4.03;;;;;;;;;;516801;28;1063;-65
2023/01/31 01:34:02;;;;;;;16.98;3.90;;;;;;;;;;519905;28;1199;-66
2023/01/31 01:34:17;;;;;;;17.10;3.83;;;;;;;;;;520627;28;1527;-66
2023/01/31 01:34:33;;;;;;;15.50;3.73;;;;;;;;;;523097;28;1158;-65
2023/01/31 01:34:49;;;;;;;15.70;3.88;;;;;;;;;;523113;28;1412;-65
2023/01/31 01:35:05;;;;;;;17.87;4.37;;;;;;;;;;520970;28;1065;-65
2023/01/31 01:35:20;;;;;;;19.35;4.82;;;;;;;;;;521826;28;1301;-66
2023/01/31 01:35:35;;;;;;;19.80;4.47;;;;;;;;;;522254;28;1226;-66
2023/01/31 01:35:51;;;;;;;19.48;4.13;;;;;;;;;;519673;28;1364;-66
2023/01/31 01:36:12;;;;;;;17.43;4.00;;;;;;;;;;519273;28;1205;-65
2023/01/31 01:36:28;;;;;;;16.13;3.88;;;;;;;;;;517406;28;1317;-66
2023/01/31 01:36:43;;;;;;;15.60;3.50;;;;;;;;;;520400;28;1496;-65
2023/01/31 01:36:59;;;;;;;15.57;3.63;;;;;;;;;;517571;28;1382;-65
2023/01/31 01:37:18;;;;;;;15.00;3.90;;;;;;;;;;522696;28;1330;-65
2023/01/31 01:37:34;;;;;;;17.45;3.97;;;;;;;;;;523055;28;1641;-65
2023/01/31 01:37:49;;;;;;;18.80;4.17;;;;;;;;;;524798;28;1246;-66